Airfield :
LOGIN :

Register | Disclaimer

   EN    FR    IT 

 










Legend :    VFR   Marginal VFR   IFR   Intensive IFR   Very Intensive IFR
Visi :
Ceiling :
>= 8 km
>= 3000ft
5 to 8 km
1000 to 3000 ft
1500m to 5 km
500 to 1000 ft
800 to 1500m
200 to 500 ft
< 800m
< 200 ft
Symbols :   Thunderstorms  Fog  Heavy snow  Heavy precipitations  Wind > 20 kt
SIGMETs :     Misc.  Thunderstorms  Icing  Turbulence  Mountain Waves  Volcanic Ashes







- Airport Elevation : 46 ft
- IATA code : PAF


LPMT - Montijo Air Base

CURRENT METAR :
  • 231700Z 34003KT 290V020 CAVOK 16/11 Q1028

EXPIRED METARs :
  • 231600Z 02005KT 340V050 9999 FEW025 16/11 Q1028

TAF TAF LPMT
Valid from the 23 at 18:00 until the 24 at 18:00 UTC


231702Z 2318/2418 01005KT 9999 FEW020
BECMG 2323/2402 VRB02KT 5000 BR BKN007
PROB40 2401/2410 0800 FG BKN004
BECMG 2409/2411 9999 NSW BKN022
BECMG 2413/2415 28005KT
No reported NOTAMs for that airfield.



MET'MAP, your aeronautical weather chart ! - Copyright ORBIFLY December 2007 - Disclaimer

ORBIFLY MET'MAP TEAM :

Programming & Development : Alexandra Zaïnal
Concept & Development : Baudouin d'Aumeries
Co-Development & Prog : Marc-Olivier Méhu
Technical & hardware support : Manuel Goepfert

Contact : metmap@orbifly.com




SOURCES & CREDITS :

   NOAA